< < Back
Terminal Aerodrome Forecast


Current Version              Previous Versions:   1  2  3  4  5  6  7  8  9  

Terminal Aerodrome Forecast

015
FTUS44 KMRX 251720
TAFCHA
TAF
KCHA 251720Z 2518/2618 20003KT P6SM BKN150
     FM260100 00000KT P6SM SCT150
     FM261400 20008KT P6SM SCT060 BKN150=



Latest METAR

861
SAUS80 KWBC 252000
MTRCHA
METAR KCHA 251953Z 20009G14KT 10SM SCT060 SCT200 BKN250 31/14 A3016 RMK
AO2 SLP205 T03060139


USA.gov is the U.S. government's official web portal to all federal, state and local government web resources and services.